Millersburg, MI (49759)

7:00 AM EDT on April 26, 2015 (GMT -0400)
Rainy River | | Change Station
CLOSE
Current Station
Personal Weather Station
Location: Onaway, MI
Elevation: 673 ft
Nearby Weather Stations

Elev 673 ft 45.43 °N, 84.20 °W | Updated 2 minutes ago

Clear
Clear
25.5 °F
Feels Like 26 °F
N
0.0
Wind Variable Wind from NNE

Today
High -- | Low -- °F
--% Chance of Precip.
Yesterday
High -- | Low -- °F
Precip. -- in
6:32 AM 8:36 PM
First Quarter, 54% visible
Pressure 29.97 in
Visibility 10.0 miles
Clouds Clear
Windchill 26 °F
Dew Point 24 °F
Humidity 92%
Rainfall 0.00 in
Snow Depth Not available.
UV 0 out of 12
Pollen 8.80 out of 12
Air Quality Not available.
Flu Activity Regional
METAR KPZQ 261055Z AUTO 28003KT 10SM CLR 00/M01 A2997 RMK AO2 T00001011

More Conditions Fewer Conditions

Pressure 29.97 in
Visibility 10.0 miles
Clouds Clear
Windchill 26 °F
Dew Point 24 °F
Humidity 92%
Rainfall 0.00 in
Snow Depth Not available.
UV 0 out of 12
Pollen 8.80 out of 12
Air Quality Not available.
Flu Activity Regional
METAR KPZQ 261055Z AUTO 28003KT 10SM CLR 00/M01 A2997 RMK AO2 T00001011

More Conditions Fewer Conditions

The full scope of the disaster following a powerful 7.8-magnitude earthquake in Nepal may not come into view for days, but global charities are already sending emergency aid. Click to see how you can help.
Nowcast | as of 7:00 am EDT on April 26, 2015

At 8 am...mostly clear. Temperature 36. Northwest winds 5 mph. At 10 am...partly cloudy. Temperature 39. North winds 8 mph. At 12 PM...partly cloudy. Temperature 43. North winds 10 mph. At 2 PM...mostly cloudy. Temperature 45. North winds 11 mph.

×

10-Day Weather Forecast

Almanac

Astronomy

Apr. 26, 2015 Rise Set
Actual Time
Civil Twilight
Nautical Twilight
Astronomical Twilight
Moon
Length of Visible Light
Length of Day
Tomorrow will be .
, % of the Moon is Illuminated

Today's Extremes

State Highs State Lows

Community

WunderPhotos

Upload Photos

1,816,962 photos uploaded!

WunderBlogs® & News

Nearby

Air Quality

  Air Quality AQ Index Pollutant
Not available.

Snow Depth

Station Depth Elevation

Earthquake Activity

City Distance Mag. Time & Date
Minimum magnitude displayed is 2.5.

Coastal Water Temperatures

Place Temperature

Stations

Nearby Weather Stations

Station Location Temp. Windchill Dew Point Humidity Wind Precip. Elev Updated Type